Tiempo atmosférico en la estación meteorológica de Bilbao Aeropuerto, Bizkaia (42 m.)

Fecha
DESCASC
Temp. máxima en grados centígrados (hora)
DESCASC
Temp. mínima en grados centígrados (hora)
DESCASC
Temp. media en grados centígrados
DESCASC
Racha de viento máxima en m/sg (hora)
DESCASC
Velocidad máxima media en intervalos de 10 minutos(hora)
DESCASC
Precipitaciones diarias en mm
DESCASC
Precipitaciones de 00:00 a 06:00 en mm
DESCASC
Precipitaciones de 06:00 a 12:00 en mm
DESCASC
Precipitaciones de 12:00 a 18:00 en mm
DESCASC
Precipitaciones de 18:00 a 24:00 en mm
DESCASC
17-08-2017 27.5 (14:30) 15.3 (07:30) 21.4 8.33 (14:50) 4.72 (14:50) 0 0 0 0 0
16-08-2017 26.8 (16:30) 18.8 (08:20) 22.8 7.22 (16:50) 5 (19:10) 0 0 0 0 0
15-08-2017 22.5 (13:00) 19.3 (00:00) 20.9 7.22 (15:50) 4.44 (16:00) 0.1 0.1 0 0 0
14-08-2017 37.2 (15:50) 15 (06:40) 26.1 10.83 (13:20) 7.78 (16:10) 0 0 0 0 0
13-08-2017 25.4 (15:30) 13.5 (00:00) 19.4 7.78 (15:50) 4.17 (16:10) 0 0 0 0 0
12-08-2017 26 (15:40) 11.1 (00:00) 18.6 9.17 (17:40) 4.72 (16:20) 0 0 0 0 0
11-08-2017 22.2 (16:30) 13.3 (00:00) 17.8 7.78 (12:10) 5 (12:00) 0 0 0 0 0
10-08-2017 20.9 (17:20) 14.1 (00:00) 17.5 11.39 (17:30) 8.06 (17:30) 15.9 4.7 3.5 7.7 0
09-08-2017 21.2 (17:50) 14.4 (00:00) 17.8 13.89 (18:10) 9.17 (18:10) 3.8 0 3.6 0.2 0
08-08-2017 21.1 (19:10) 15.7 (00:00) 18.4 13.89 (14:10) 9.17 (14:10) 2.7 0.3 0 2.4 0
07-08-2017 25.2 (12:30) 16.8 (00:00) 21 15 (23:10) 10 (23:20) 1.4 0 0 0 1.4
06-08-2017 23.2 (13:30) 16.8 (00:00) 20 9.17 (19:40) 5.56 (18:10) 0 0 0 0 0
05-08-2017 24.8 (00:00) 17.7 (00:00) 21.3 8.89 (12:50) 6.39 (12:50) 5.9 0 0.6 2.9 2.4
04-08-2017 31.5 (15:00) 20.1 (00:00) 25.8 9.72 (17:50) 5.28 (15:50) 0 0 0 0 0
03-08-2017 29.6 (15:20) 16.3 (00:00) 22.9 11.67 (15:10) 6.39 (17:30) 0 0 0 0 0
02-08-2017 28.2 (14:40) 16 (00:00) 22.1 9.17 (16:20) 6.39 (16:30) -- 0 -- 0 0
01-08-2017 24.7 (17:20) 17.4 (00:00) 21.1 9.17 (19:20) 4.72 (19:50) 0 0 0 0 0
31-07-2017 20.3 (14:10) 18 (00:00) 19.1 6.67 (18:20) 3.61 (14:20) 2.5 0 1.8 0.7 0
30-07-2017 23.1 (13:40) 17.9 (00:00) 20.5 7.78 (14:40) 5.28 (14:50) 0 0 0 0 0
29-07-2017 29.9 (14:50) 16.8 (00:00) 23.3 8.33 (18:20) 4.72 (19:30) 0 0 0 0 0
28-07-2017 26.6 (17:00) 18.9 (00:00) 22.8 8.33 (17:30) 6.11 (18:00) 0 0 0 0 0
27-07-2017 28.1 (14:10) 14.4 (00:00) 21.3 9.17 (15:00) 5.56 (17:00) 0 0 0 0 0
26-07-2017 25.5 (13:30) 13.9 (00:00) 19.7 8.33 (15:10) 5.28 (15:00) 0 0 0 0 0
25-07-2017 21.6 (15:50) 16.5 (00:00) 19.1 8.89 (15:00) 5.83 (14:20) 0.7 0.5 0.2 0 0
24-07-2017 21.9 (16:40) 17.5 (00:00) 19.7 12.78 (16:40) 8.89 (16:50) 6.8 1.6 1.7 2.3 1.2
23-07-2017 24.8 (16:00) 16.2 (00:00) 20.5 7.78 (18:00) 5 (17:20) 0 0 0 0 0
22-07-2017 26 (13:50) 13.6 (00:00) 19.8 10.83 (14:30) 7.22 (14:20) 0 0 0 0 0

Gráficas

Temp. máximas Temp. mínimas Temp. medias Precipitaciones Rachas de viento máximas Velocidades máximas media en intervalos de 10 minutos

Datos horarios

Fecha y hora oficial Temperatura (ºC) Velocidad del viento (km/h) Dirección del viento Racha (km/h) Dirección de racha Precipitación (mm) Presión (hPa) Tendencia (hPa) Humedad (%)
2017-08-20 23:00:00 18 3 Este 26 Nordeste 0 1019.1 0.3 75
2017-08-20 22:00:00 19.2 6 Este 22 Este 0 1019.2 0.2 69
2017-08-20 21:00:00 20.7 11 Este 18 Este 0 1018.9 -0.5 62
2017-08-20 20:00:00 23.3 13 Este 21 Este 0 1018.8 -1 51
2017-08-20 19:00:00 24.5 11 Este 22 Nordeste 0 1019 -1.1 48
2017-08-20 18:00:00 24.6 15 Nordeste 30 Nordeste 0 1019.4 -0.7 47
2017-08-20 17:00:00 24.8 18 Nordeste 32 Nordeste 0 1019.8 -0.8 49
2017-08-20 16:00:00 25.3 20 Nordeste 30 Nordeste 0 1020.1 -0.7 49
2017-08-20 15:00:00 25.5 12 Nordeste 24 Nordeste 0 1020.1 -1.4 48
2017-08-20 14:00:00 25 5 Nordeste 18 Este 0 1020.6 -1.3 49
2017-08-20 13:00:00 23.8 8 Sudeste 22 Sudeste 0 1020.8 -1.2 54
2017-08-20 12:00:00 22.4 5 Este 17 Sudeste 0 1021.5 -0.4 59
2017-08-20 11:00:00 20.8 2 Nordeste 8 Este 0 1021.9 0.2 69
2017-08-20 10:00:00 18.1 2 Sudeste 9 Este 0 1022 0.5 81
2017-08-20 09:00:00 15.2 5 Sudeste 11 Este 0 1021.9 0.5 91
2017-08-20 08:00:00 13 6 Este 13 Este 0 1021.7 0.3 98
2017-08-20 07:00:00 12.9 5 Este 13 Este 0 1021.5 0.1 98
2017-08-20 06:00:00 13 5 Este 11 Este 0 1021.4 -0.2 98
2017-08-20 05:00:00 13.3 6 Este 11 Este 0 1021.4 -0.3 97
2017-08-20 04:00:00 13.8 6 Este 11 Este 0 1021.4 -0.7 97
2017-08-20 03:00:00 14 4 Este 8 Este 0 1021.6 -0.5 96
2017-08-20 02:00:00 14.4 6 Este 11 Este 0 1021.7 0 94
2017-08-20 01:00:00 15.1 4 Este 5 Sudeste 0 1022.1 1.2 91
2017-08-20 00:00:00 15.9 4 Este 5 Nordeste 0 1022.1 2 88
2017-08-19 23:00:00 17.3 0 Calma 13 Nordeste 0 1021.7 2 83
2017-08-19 22:00:00 18.7 4 Este 21 Este 0 1020.9 1.5 76
2017-08-19 21:00:00 20.2 8 Este 26 Nordeste 0 1020.1 0.9 69
2017-08-19 20:00:00 21.8 15 Nordeste 22 Nordeste 0 1019.7 0.6 62
2017-08-19 19:00:00 22.7 16 Nordeste 28 Nordeste 0 1019.4 0.2 60
2017-08-19 18:00:00 23.5 14 Nordeste 26 Nordeste 0 1019.2 0 60
2017-08-19 17:00:00 22.8 15 Nordeste 30 Norte 0 1019.1 -0.1 62
2017-08-19 16:00:00 23.7 16 Norte 30 Norte 0 1019.2 0 62
2017-08-19 15:00:00 23.3 13 Nordeste 28 Nordeste 0 1019.2 0 64
2017-08-19 14:00:00 23.5 19 Nordeste 30 Nordeste 0 1019.2 -0.5 63
2017-08-19 13:00:00 22.6 11 Nordeste 24 Nordeste 0 1019.2 -0.2 66
2017-08-19 12:00:00 23.6 12 Sudeste 21 Este 0 1019.2 -0.3 67
2017-08-19 11:00:00 22.2 7 Sudeste 18 Sudeste 0 1019.7 0.9 74
2017-08-19 10:00:00 20.2 0 Calma 5 Sudeste 0 1019.4 1 88
2017-08-19 09:00:00 18.5 0 Calma 4 Este 0 1019.5 1.4 96
2017-08-19 08:00:00 18.1 0 Calma 4 Nordeste 0 1018.8 0.6 97
2017-08-19 07:00:00 18.5 0 Calma 5 Este 0 1018.4 0.1 96
2017-08-19 06:00:00 18.7 0 Calma 4 Nordeste 0 1018.1 -0.5 97
2017-08-19 05:00:00 18.9 2 Oeste 4 Oeste 0 1018.2 -0.4 96
2017-08-19 04:00:00 19.2 3 Noroeste 4 Noroeste 0 1018.3 -0.3 94
2017-08-19 03:00:00 19.5 0 Calma 5 Noroeste 0 1018.6 0 95
2017-08-19 02:00:00 19.8 3 Oeste 8 Noroeste 0 1018.6 -0.2 92
2017-08-19 01:00:00 19.9 3 Este 15 Nordeste 0 1018.6 0.1 90
2017-08-19 00:00:00 20.2 2 Este 8 Este 0 1018.6 0.6 87
2017-08-18 23:00:00 20.5 2 Oeste 4 Oeste 0 1018.8 1.4 86
2017-08-18 22:00:00 20.9 0 Calma 8 Noroeste 0 1018.5 1.2 83
2017-08-18 21:00:00 21.3 4 Noroeste 17 Norte 0 1018 0.5 79
2017-08-18 20:00:00 22.7 9 Noroeste 21 Norte 0 1017.4 -0.3 73
2017-08-18 19:00:00 22.9 12 Norte 24 Norte 0 1017.3 -0.3 76
2017-08-18 18:00:00 23.4 17 Noroeste 26 Noroeste 0 1017.5 0.2 74
2017-08-18 17:00:00 23 17 Noroeste 26 Noroeste 0 1017.7 0.8 79
2017-08-18 16:00:00 21.7 6 Oeste 17 Noroeste 0 1017.6 1.1 89
2017-08-18 15:00:00 21.5 7 Norte 21 Norte 0.7 1017.3 1.1 91
2017-08-18 14:00:00 23.2 12 Noroeste 24 Norte 0 1016.9 0.9 78
2017-08-18 13:00:00 24.2 10 Noroeste 21 Norte 0 1016.5 0.7 73
2017-08-18 12:00:00 24.3 0 Calma 13 Este 0 1016.2 0.6 71
2017-08-18 11:00:00 22.4 8 Este 15 Este 0 1016 0.9 81
2017-08-18 10:00:00 20.6 3 Este 9 Este 0 1015.8 1 87
2017-08-18 09:00:00 20.1 5 Este 13 Este 0 1015.6 1 88
2017-08-18 08:00:00 19 3 Sudeste 8 Sudeste 0 1015.1 0.3 94
2017-08-18 07:00:00 19 4 Sudeste 13 Este 0 1014.8 -0.5 95
2017-08-18 06:00:00 18.7 6 Sudeste 13 Este 0 1014.6 -1 96
2017-08-18 05:00:00 18.7 4 Sudeste 13 Este 0 1014.8 -1.1 96
2017-08-18 04:00:00 18.4 5 Este 11 Este 0 1015.3 -0.3 96
2017-08-18 03:00:00 17.9 5 Este 5 Este 0 1015.6 0.3 96
2017-08-18 02:00:00 18.3 0 Calma 4 Este 0 1015.9 0.7 91
2017-08-18 01:00:00 19 0 Calma -- -- 0 1015.6 0.8 89
2017-08-18 00:00:00 19.6 2 Sudeste 8 Este 0 1015.3 0.7 87
2017-08-17 23:00:00 20.9 0 Calma 4 Oeste 0 1015.2 0.6 84
2017-08-17 22:00:00 21.8 4 Oeste 17 Noroeste 0 1014.8 0.3 80
2017-08-17 21:00:00 23.2 10 Noroeste 18 Noroeste 0 1014.6 -0.5 75
2017-08-17 20:00:00 24.3 14 Oeste 21 Oeste 0 1014.6 -1 70
2017-08-17 19:00:00 26.1 14 Oeste 24 Noroeste 0 1014.5 -1.5 63
2017-08-17 18:00:00 27.1 13 Noroeste 24 Oeste 0 1015.1 -1.1 58
2017-08-17 17:00:00 26.6 13 Noroeste 24 Noroeste 0 1015.6 -0.7 59
2017-08-17 16:00:00 26.4 13 Norte 26 Norte 0 1016 -0.7 59
2017-08-17 15:00:00 27 15 Norte 30 Noroeste 0 1016.2 -0.9 57
2017-08-17 14:00:00 27.1 14 Oeste 24 Noroeste 0 1016.3 -1.2 57
2017-08-17 13:00:00 26.5 5 Noroeste 15 Noroeste 0 1016.7 -0.9 54
2017-08-17 12:00:00 25.1 2 Oeste 8 Oeste 0 1017.1 -0.3 55
2017-08-17 11:00:00 23.4 0 Calma 5 Norte 0 1017.5 0.6 60
2017-08-17 10:00:00 20.8 0 Calma 8 Sudeste 0 1017.6 1 70
2017-08-17 09:00:00 18.4 2 Sudeste 13 Este 0 1017.4 1 81
2017-08-17 08:00:00 15.8 3 Este 11 Sudeste 0 1016.9 0.2 93
2017-08-17 07:00:00 15.5 4 Este 11 Este 0 1016.6 -0.3 93
2017-08-17 06:00:00 15.9 5 Este 9 Sudeste 0 1016.4 -0.6 94
2017-08-17 05:00:00 16.2 2 Este 8 Este 0 1016.7 -0.8 95
2017-08-17 04:00:00 16.6 4 Este 9 Este 0 1016.9 -1.1 95
2017-08-17 03:00:00 16.9 4 Este 11 Sudeste 0 1017 -1.6 96
2017-08-17 02:00:00 17.4 5 Este 8 Este 0 1017.5 -1 94
2017-08-17 01:00:00 18 4 Este 8 Este 0 1018 -0.5 93
2017-08-17 00:00:00 18.9 2 Sudeste 8 Este 0 1018.6 0.6 89
2017-08-16 23:00:00 19.5 3 Sudeste 8 Sudeste 0 1018.5 0.7 86
2017-08-16 22:00:00 21 3 Oeste 15 Noroeste 0 1018.5 1.1 82
2017-08-16 21:00:00 22.6 9 Oeste 21 Noroeste 0 1018 0.6 72
2017-08-16 20:00:00 23.6 15 Noroeste 24 Noroeste 0 1017.8 0.1 67
2017-08-16 19:00:00 25.2 17 Oeste 26 Noroeste 0 1017.4 0.1 63
2017-08-16 18:00:00 26.4 13 Noroeste 22 Noroeste 0 1017.4 -0.1 57
2017-08-16 17:00:00 26.3 11 Norte 26 Norte 0 1017.7 0.1 58
2017-08-16 16:00:00 25.7 10 Norte 22 Norte 0 1017.3 -0.8 62
2017-08-16 15:00:00 25.4 10 Norte 18 Noroeste 0 1017.5 -0.3 62
2017-08-16 14:00:00 25.4 5 Nordeste 21 Norte 0 1017.6 -0.3 61
2017-08-16 13:00:00 24.3 13 Norte 21 Norte 0 1018.1 0.3 68
2017-08-16 12:00:00 24.2 4 Norte 17 Norte 0 1017.8 0.1 62
2017-08-16 11:00:00 24.1 3 Noroeste 11 Noroeste 0 1017.9 -- 67
2017-08-16 10:00:00 22.5 0 Calma 5 Norte 0 1017.8 0.8 74
2017-08-16 09:00:00 20.7 0 Calma 4 Nordeste 0 1017.7 0.9 88
2017-08-16 08:00:00 -- -- -- -- -- -- -- -- --
2017-08-16 07:00:00 19 0 Calma 2 Sur 0 1017 0.1 95
2017-08-16 06:00:00 19.1 0 Calma 2 Sur 0 1016.8 -0.2 95
2017-08-16 05:00:00 19.1 2 Este 5 Este 0 1016.6 -0.8 95
2017-08-16 04:00:00 19 3 Este 5 Este 0 1016.9 -1.1 94
2017-08-16 03:00:00 19.2 2 Este 4 Este 0 1017 -1 92
2017-08-16 02:00:00 19.6 0 Calma 4 Nordeste 0 1017.4 -0.3 90
2017-08-16 01:00:00 19.9 0 Calma 5 Norte 0 1018 0.4 88
2017-08-16 00:00:00 20.2 0 Calma 4 Norte 0 1018 0.7 86
2017-08-15 23:00:00 20.3 2 Sudoeste 4 Sudoeste 0 1017.7 0.8 85
2017-08-15 22:00:00 20.6 2 Oeste 11 Norte 0 1017.6 1.2 83
2017-08-15 21:00:00 20.7 7 Noroeste 15 Noroeste 0 1017.3 0.8 82
2017-08-15 20:00:00 21.3 8 Noroeste 13 Noroeste 0 1016.9 0.6 80
2017-08-15 19:00:00 21.7 6 Noroeste 15 Norte 0 1016.4 0.1 76
2017-08-15 18:00:00 22 9 Norte 22 Norte 0 1016.5 0.5 74
2017-08-15 17:00:00 21.8 7 Norte 26 Noroeste 0 1016.3 0.7 78
2017-08-15 16:00:00 21.3 16 Noroeste 26 Noroeste 0 1016.3 1.2 82
2017-08-15 15:00:00 21.4 13 Noroeste 21 Noroeste 0 1016 0.9 80
2017-08-15 14:00:00 21.2 14 Noroeste 22 Noroeste 0 1015.6 0.7 83
2017-08-15 13:00:00 22.4 7 Oeste 15 Oeste 0 1015.1 0.3 79
2017-08-15 12:00:00 21.4 5 Oeste 11 Noroeste 0 1015.1 0.8 82
2017-08-15 11:00:00 20.6 5 Oeste 15 Noroeste 0 1014.9 1.1 87
2017-08-15 10:00:00 21.3 2 Norte 8 Noroeste 0 1014.8 1.3 87
2017-08-15 09:00:00 20.6 0 Calma 2 Oeste 0 1014.3 1.1 95
2017-08-15 08:00:00 20 0 Calma 8 Nordeste 0 1013.8 0.7 97
2017-08-15 07:00:00 19.8 2 Sudeste 5 Este 0 1013.5 0.7 97
2017-08-15 06:00:00 19.8 2 Sudeste 5 Sudeste 0 1013.2 0.2 97
2017-08-15 05:00:00 19.4 3 Este 11 Este 0 1013.1 0 97
2017-08-15 04:00:00 19.5 5 Este 11 Este 0 1012.8 0 97
2017-08-15 03:00:00 19.9 4 Este 5 Sudeste 0 1013 1.3 96
2017-08-15 02:00:00 20.6 2 Este 8 Sudeste 0 1013.1 0.6 95
2017-08-15 01:00:00 20.7 6 Este 17 Sudoeste 0.1 1012.8 1.4 95
2017-08-15 00:00:00 21.3 16 Este 24 Este 0 1011.7 1.4 91
2017-08-14 23:00:00 21.9 5 Sudeste 11 Sudeste 0 1012.5 3 84
2017-08-14 22:00:00 22.6 0 Calma 15 Norte 0 1011.4 2.7 79
2017-08-14 21:00:00 23.8 9 Norte 26 Noroeste 0 1010.3 2.3 72
2017-08-14 20:00:00 24.6 14 Noroeste 32 Noroeste 0 1009.5 2.3 72
2017-08-14 19:00:00 24.8 13 Noroeste 32 Noroeste 0 1008.7 2.7 72
2017-08-14 18:00:00 25.7 12 Noroeste 32 Noroeste 0 1008 1.7 73
2017-08-14 17:00:00 27.2 21 Noroeste 39 Noroeste 0 1007.2 0.3 59
2017-08-14 16:00:00 31.6 26 Oeste 39 Noroeste 0 1006 -1.3 50
2017-08-14 15:00:00 36 18 Sudeste 33 Sudeste 0 1006.3 -1.5 29
2017-08-14 14:00:00 34.2 19 Sur 39 Sudoeste 0 1006.9 -1.4 31
2017-08-14 13:00:00 32.4 20 Sur 37 Sudeste 0 1007.3 -1.3 35
2017-08-14 12:00:00 30.6 17 Sur 35 Sudeste 0 1007.8 -1.1 41
2017-08-14 11:00:00 27.9 14 Sudeste 32 Sudeste 0 1008.3 -1.1 53
2017-08-14 10:00:00 24.1 16 Sudeste 24 Sudeste 0 1008.6 -1.2 67
2017-08-14 09:00:00 18.6 21 Sudeste 28 Sudeste 0 1008.9 -1.6 89
2017-08-14 08:00:00 16.1 13 Este 21 Este 0 1009.4 -1.8 98
2017-08-14 07:00:00 15.3 8 Sudeste 15 Sudeste 0 1009.8 -2.2 98
2017-08-14 06:00:00 15.3 3 Este 8 Sudeste 0 1010.5 -2.1 98
2017-08-14 05:00:00 15.6 5 Este 11 Este 0 1011.2 -1.9 97
2017-08-14 04:00:00 15.9 5 Este 8 Este 0 1012 -1.4 96
2017-08-14 03:00:00 16.3 3 Este 8 Este 0 1012.6 -1.1 96
2017-08-14 02:00:00 16.6 5 Este 8 Este 0 1013.1 -0.8 92
2017-08-14 01:00:00 17.6 0 Calma 4 Sudeste 0 1013.4 -0.1 90
2017-08-14 00:00:00 18.1 0 Calma 2 Sudeste 0 1013.7 0.7 88
2017-08-13 23:00:00 19.1 2 Sur 4 Sur 0 1013.9 1 85
2017-08-13 22:00:00 20.9 0 Calma 13 Nordeste 0 1013.5 0.4 77
2017-08-13 21:00:00 22.4 6 Nordeste 22 Norte 0 1013 -0.4 70
2017-08-13 20:00:00 23.8 9 Nordeste 21 Nordeste 0 1012.9 -0.9 64
2017-08-13 19:00:00 24.6 13 Nordeste 26 Nordeste 0 1013.1 -1.2 61
2017-08-13 18:00:00 25.1 12 Nordeste 26 Este 0 1013.4 -1.4 61
2017-08-13 17:00:00 25 12 Nordeste 28 Este 0 1013.8 -1.6 62
2017-08-13 16:00:00 25 13 Nordeste 28 Nordeste 0 1014.3 -1.6 63
2017-08-13 15:00:00 24.5 11 Nordeste 26 Nordeste 0 1014.8 -1.7 64
2017-08-13 14:00:00 24 6 Norte 18 Norte 0 1015.4 -1.6 65
2017-08-13 13:00:00 24.1 6 Este 15 Este 0 1015.9 -1.3 65
2017-08-13 12:00:00 23.1 2 Este 8 Sudeste 0 1016.5 -0.8 67
2017-08-13 11:00:00 20.1 0 Calma 8 Sudoeste 0 1017 -0.2 74
2017-08-13 10:00:00 17.9 0 Calma 8 Este 0 1017.2 -0.1 81
2017-08-13 09:00:00 16 2 Este 8 Este 0 1017.3 -0.2 91
2017-08-13 08:00:00 15.1 3 Este 11 Este 0 1017.2 -0.7 94
2017-08-13 07:00:00 14.4 0 Calma 4 Nordeste 0 1017.3 -0.8 95
2017-08-13 06:00:00 14 0 Calma 8 Este 0 1017.5 -0.8 96
2017-08-13 05:00:00 13.7 5 Este 8 Sudeste 0 1017.9 -0.8 95
2017-08-13 04:00:00 13.9 5 Este 8 Este 0 1018.1 -0.9 95
2017-08-13 03:00:00 14.1 4 Este 8 Este 0 1018.3 -0.8 95
2017-08-13 02:00:00 14.4 5 Sudeste 8 Este 0 1018.7 -0.6 92
2017-08-13 01:00:00 15.3 2 Este -- -- 0 1019 0 90
2017-08-13 00:00:00 16.1 3 Este 5 Este 0 1019.1 0.5 86
2017-08-12 23:00:00 17.2 4 Este 8 Este 0 1019.3 1 81
2017-08-12 22:00:00 19 2 Oeste 13 Norte 0 1019 0.9 73
2017-08-12 21:00:00 20.8 7 Oeste 18 Noroeste 0 1018.6 0.5 65
2017-08-12 20:00:00 23 10 Noroeste 18 Noroeste 0 1018.3 0.2 55
2017-08-12 19:00:00 24.5 14 Noroeste 33 Norte 0 1018.1 -0.1 35
2017-08-12 18:00:00 25.1 17 Noroeste 33 Noroeste 0 1018.1 -0.6 39
2017-08-12 17:00:00 25.2 15 Noroeste 26 Noroeste 0 1018.1 -1 53
2017-08-12 16:00:00 25.8 15 Noroeste 30 Norte 0 1018.2 -1.3 51
2017-08-12 15:00:00 25.4 10 Oeste 21 Oeste 0 1018.7 -1.3 49
2017-08-12 14:00:00 24.8 3 Este 13 Nordeste 0 1019.1 -1 43
2017-08-12 13:00:00 24.1 3 Sur 13 Sudeste 0 1019.5 -0.9 46
2017-08-12 12:00:00 22.1 6 Sudeste 17 Sudeste 0 1020 -0.4 52
2017-08-12 11:00:00 20.1 2 Sudeste 13 Sudeste 0 1020.1 0.1 67
2017-08-12 10:00:00 17.1 6 Sudeste 13 Sudeste 0 1020.4 0.7 78
2017-08-12 09:00:00 14.8 3 Sudeste 8 Este 0 1020.4 0.6 86
2017-08-12 08:00:00 12 4 Sudeste 11 Sudeste 0 1020 -0.3 97
2017-08-12 07:00:00 11.3 4 Sudeste 9 Sudeste 0 1019.7 -0.9 97
2017-08-12 06:00:00 11.7 4 Este 13 Este 0 1019.8 -1 97
2017-08-12 05:00:00 12 5 Este 11 Este 0 1020.3 -0.7 96
2017-08-12 04:00:00 12.3 0 Calma 8 Este 0 1020.6 -0.3 96
2017-08-12 03:00:00 12.8 6 Este 8 Este 0 1020.8 -0.2 95
2017-08-12 02:00:00 13 6 Este 11 Este 0 1021 -0.4 94
2017-08-12 01:00:00 13.6 5 Este 9 Este 0 1020.9 -0.4 92
2017-08-12 00:00:00 14.5 6 Este 11 Este 0 1021 0 87
2017-08-11 23:00:00 15.7 3 Este 5 Este 0 1021.4 0.4 83
2017-08-11 22:00:00 17.6 0 Calma 15 Nordeste 0 1021.3 0.4 73
2017-08-11 21:00:00 19.5 6 Norte 18 Norte 0 1021 -0.1 62
2017-08-11 20:00:00 20.7 10 Norte 18 Norte 0 1021 -0.2 59
2017-08-11 19:00:00 21.3 14 Norte 26 Nordeste 0 1020.9 -0.4 59
2017-08-11 18:00:00 21.8 14 Norte 28 Norte 0 1021.1 -0.3 53
2017-08-11 17:00:00 22 15 Norte 26 Nordeste 0 1021.2 -0.5 56
2017-08-11 16:00:00 21.5 11 Noroeste 28 Norte 0 1021.3 -0.4 57
2017-08-11 15:00:00 21.1 13 Noroeste 28 Norte 0 1021.4 -0.4 58
2017-08-11 14:00:00 20.9 15 Norte 28 Norte 0 1021.7 0.2 58
2017-08-11 13:00:00 20 15 Norte 28 Norte 0 1021.7 0.1 64
2017-08-11 12:00:00 20.4 18 Noroeste 26 Noroeste 0 1021.8 0.2 65
2017-08-11 11:00:00 19.3 6 Noroeste 17 Noroeste 0 1021.5 0 72
2017-08-11 10:00:00 18.8 2 Oeste 8 Oeste 0 1021.6 0.3 74
2017-08-11 09:00:00 16 4 Este 13 Nordeste 0 1021.6 0.6 87
2017-08-11 08:00:00 14 6 Este 13 Este 0 1021.5 0.2 97
2017-08-11 07:00:00 13.4 4 Este 15 Este 0 1021.3 -0.4 97
2017-08-11 06:00:00 13.3 6 Este 11 Este 0 1021 -1.1 97
2017-08-11 05:00:00 13.5 5 Este 15 Este 0 1021.3 -1.5 97
2017-08-11 04:00:00 13.6 7 Este 13 Este 0 1021.7 -1.4 97
2017-08-11 03:00:00 13.5 6 Sudeste 11 Sudeste 0 1022.1 -0.9 96
2017-08-11 02:00:00 14 5 Sudeste 11 Este 0 1022.8 -0.4 94
2017-08-11 01:00:00 14.3 4 Este 11 Sudeste 0 1023.1 0.2 93
2017-08-11 00:00:00 14.6 6 Sudeste 9 Este 0 1023 0.2 88
2017-08-10 23:00:00 16.4 0 Calma 15 Norte 0 1023.2 0.6 79
2017-08-10 22:00:00 17.3 10 Noroeste 26 Norte 0 1022.9 0.3 71
2017-08-10 21:00:00 18 18 Noroeste 35 Noroeste 0 1022.8 0.2 66
2017-08-10 20:00:00 19.2 22 Noroeste 39 Noroeste 0 1022.6 0.1 66
2017-08-10 19:00:00 20.1 23 Noroeste 39 Noroeste 0 1022.6 -0.2 65
2017-08-10 18:00:00 20.5 23 Noroeste 41 Noroeste 0.1 1022.6 -0.3 66
2017-08-10 17:00:00 19.4 19 Noroeste 35 Noroeste 0 1022.5 -0.5 73
2017-08-10 16:00:00 18.6 13 Norte 35 Noroeste 0 1022.8 -0.1 82
2017-08-10 15:00:00 17.1 6 Noroeste 26 Norte 0.6 1022.9 0.4 92
2017-08-10 14:00:00 16.4 8 Oeste 21 Noroeste 3.8 1023 0.9 96
2017-08-10 13:00:00 16.3 16 Norte 26 Norte 3.2 1022.9 0.9 93
2017-08-10 12:00:00 16.4 0 Calma 30 Noroeste 1.5 1022.5 0.6 92
2017-08-10 11:00:00 17.5 15 Oeste 28 Oeste 0 1022.1 0.7 78
2017-08-10 10:00:00 16.1 10 Oeste 22 Oeste 0.1 1022 0.7 86
2017-08-10 09:00:00 15 3 Sudoeste 8 Sudoeste 1 1021.9 0.9 99
2017-08-10 08:00:00 14.4 2 Este 8 Sudeste 0.7 1021.4 0.2 99
2017-08-10 07:00:00 14.2 0 Calma 8 Este 0.2 1021.3 0 99
2017-08-10 06:00:00 14.3 4 Sudeste 8 Sudeste 0.6 1021 -0.6 99
2017-08-10 05:00:00 14.5 0 Calma 4 Sudeste 0.2 1021.2 -0.4 97
2017-08-10 04:00:00 14.7 0 Calma 11 Norte 1.3 1021.3 -0.5 96
2017-08-10 03:00:00 15.1 4 Oeste 21 Oeste 2.6 1021.6 0.2 92
2017-08-10 02:00:00 15.7 3 Oeste 21 Noroeste 0 1021.6 0.8 83
2017-08-10 01:00:00 16.7 15 Oeste 28 Oeste 0 1021.8 1.3 76
2017-08-10 00:00:00 17.7 22 Noroeste 33 Noroeste 0 1021.4 1.4 68
2017-08-09 23:00:00 17.9 19 Noroeste 35 Noroeste 0 1020.8 1.3 65
2017-08-09 22:00:00 18 20 Noroeste 30 Noroeste 0 1020.5 1.3 63
2017-08-09 21:00:00 18.2 15 Noroeste 39 Norte 0 1020 0.9 65
2017-08-09 20:00:00 19.3 23 Noroeste 37 Noroeste 0 1019.5 0.4 61
2017-08-09 19:00:00 19 29 Noroeste 50 Noroeste 0 1019.2 0.3 63
2017-08-09 18:00:00 20.5 29 Noroeste 45 Noroeste 0 1019.1 0.7 57
2017-08-09 17:00:00 20.6 28 Noroeste 42 Noroeste 0 1019.1 1 57
2017-08-09 16:00:00 19 24 Noroeste 46 Noroeste 0.2 1018.9 1.1 68
2017-08-09 15:00:00 20.7 28 Noroeste 45 Noroeste 0 1018.4 0.5 53
2017-08-09 14:00:00 19.6 24 Noroeste 42 Norte 0 1018.1 1.1 55
2017-08-09 13:00:00 19.5 24 Noroeste 37 Noroeste 0 1017.8 1 65
2017-08-09 12:00:00 16.6 15 Oeste 35 Oeste 0 1017.9 1.4 77
2017-08-09 11:00:00 17.3 6 Oeste 17 Oeste 0 1017 1.1 80
2017-08-09 10:00:00 15.1 0 Calma 21 Noroeste 0.3 1016.8 1.8 92
2017-08-09 09:00:00 14.7 16 Noroeste 35 Noroeste 1.5 1016.5 1.7 97
2017-08-09 08:00:00 15.5 24 Noroeste 48 Noroeste 1.8 1015.9 0.7 92
2017-08-09 07:00:00 15.9 0 Calma 8 Este 0 1015 -0.5 89
2017-08-09 06:00:00 15.5 5 Este 15 Sudeste 0 1014.8 -0.9 91
2017-08-09 05:00:00 15.7 4 Este 8 Sudeste 0 1015.2 -0.7 90
2017-08-09 04:00:00 16 5 Este 8 Este 0 1015.5 -0.5 89
2017-08-09 03:00:00 16.4 4 Sur 13 Noroeste 0 1015.7 -0.5 86
2017-08-09 02:00:00 16.3 4 Sudeste 9 Este 0 1015.9 -0.5 86
2017-08-09 01:00:00 16.5 4 Este 11 Este 0 1016 -0.6 85
2017-08-09 00:00:00 16.6 3 Sudeste 11 Norte 0 1016.2 0 82
2017-08-08 23:00:00 18 8 Norte 15 Norte 0 1016.4 0.2 72
2017-08-08 22:00:00 18.7 4 Sudoeste 13 Oeste 0 1016.6 0.4 67
2017-08-08 21:00:00 18.8 3 Noroeste 21 Noroeste 0 1016.2 -0.5 69
2017-08-08 20:00:00 19.4 15 Noroeste 24 Noroeste 0 1016.2 -0.4 65
2017-08-08 19:00:00 20.9 14 Noroeste 26 Noroeste 0 1016.2 -0.4 58
2017-08-08 18:00:00 19.4 9 Noroeste 42 Noroeste 0 1016.7 0.1 73
2017-08-08 17:00:00 19.6 22 Noroeste 39 Noroeste 0 1016.6 0.3 70
2017-08-08 16:00:00 19.4 5 Norte 35 Noroeste 0 1016.6 0.5 66
2017-08-08 15:00:00 18.8 13 Oeste 50 Noroeste 0 1016.6 1 73
2017-08-08 14:00:00 19 23 Noroeste 45 Noroeste 0 1016.3 1.1 77
2017-08-08 13:00:00 16.7 26 Noroeste 39 Noroeste 2.4 1016.1 1.2 93
2017-08-08 12:00:00 18.4 3 Noroeste 39 Noroeste 0 1015.6 1.1 79
2017-08-08 11:00:00 19.1 5 Sudoeste 30 Noroeste 0 1015.2 1.2 75
2017-08-08 10:00:00 18 8 Oeste 18 Oeste 0 1014.9 1.1 78
2017-08-08 09:00:00 16.5 0 Calma 9 Nordeste 0 1014.5 1 91
2017-08-08 08:00:00 15.8 5 Este 11 Este 0 1014 0.4 93
2017-08-08 07:00:00 16.6 0 Calma 15 Oeste 0 1013.8 0.3 81
2017-08-08 06:00:00 17.3 9 Oeste 26 Noroeste 0 1013.5 0 77
2017-08-08 05:00:00 17.5 15 Oeste 32 Noroeste 0 1013.6 0.2 77
2017-08-08 04:00:00 17.4 15 Oeste 28 Oeste 0 1013.5 0.3 80
2017-08-08 03:00:00 17.3 15 Oeste 32 Noroeste 0 1013.5 0.4 85
2017-08-08 02:00:00 17.7 9 Oeste 26 Noroeste 0.2 1013.4 1.4 90
2017-08-08 01:00:00 17.4 6 Oeste 28 Noroeste 0.1 1013.2 1.9 94
2017-08-08 00:00:00 17 24 Noroeste 54 Noroeste 0.2 1013.1 2.8 93
2017-08-07 23:00:00 18.9 35 Noroeste 48 Noroeste 0.8 1012 1.8 92
2017-08-07 22:00:00 18.9 21 Oeste 33 Noroeste 0.4 1011.3 1.3 96
2017-08-07 21:00:00 20 19 Noroeste 35 Noroeste 0 1010.3 0.4 84
2017-08-07 20:00:00 21 19 Noroeste 32 Noroeste 0 1010.2 0.5 80
2017-08-07 19:00:00 21.6 13 Noroeste 32 Noroeste 0 1010 0.6 75
2017-08-07 18:00:00 21.5 23 Noroeste 35 Noroeste 0 1009.9 0.4 80
2017-08-07 17:00:00 22.5 19 Noroeste 30 Noroeste 0 1009.7 -0.2 76
2017-08-07 16:00:00 22.9 18 Noroeste 33 Noroeste 0 1009.4 -0.6 73
2017-08-07 15:00:00 24.2 18 Noroeste 28 Noroeste 0 1009.5 -0.9 68
2017-08-07 14:00:00 24.2 15 Noroeste 26 Noroeste 0 1009.9 -0.9 68
2017-08-07 13:00:00 25.1 10 Noroeste 22 Norte 0 1010 -1.4 63
2017-08-07 12:00:00 23.7 0 Calma 11 Oeste 0 1010.4 -1.2 64
2017-08-07 11:00:00 23.5 3 Sur 11 Sudoeste 0 1010.8 -1 67
2017-08-07 10:00:00 21.6 0 Calma 9 Este 0 1011.4 -0.5 75
2017-08-07 09:00:00 19.6 7 Este 15 Este 0 1011.6 -0.6 83
2017-08-07 08:00:00 18 3 Este 8 Este 0 1011.8 -1.2 90
2017-08-07 07:00:00 17.6 2 Sudeste 5 Este 0 1011.9 -1.8 91
2017-08-07 06:00:00 17.5 2 Este 4 Este 0 1012.2 -2.4 92
2017-08-07 05:00:00 17.1 2 Sudeste 4 Sudeste 0 1013 -2.1 93
2017-08-07 04:00:00 16.9 0 Calma 4 Este 0 1013.7 -2.1 91
2017-08-07 03:00:00 17.5 0 Calma 4 Este 0 1014.6 -1.4 88
2017-08-07 02:00:00 18.3 3 Este 4 Este 0 1015.1 -1.2 84
2017-08-07 01:00:00 18.7 0 Calma 4 Oeste 0 1015.8 -0.3 84
2017-08-07 00:00:00 19.2 0 Calma 5 Norte 0 1016 -0.3 81
2017-08-06 23:00:00 20.3 2 Oeste 8 Sudeste 0 1016.3 -0.2 74
2017-08-06 22:00:00 20.8 0 Calma 8 Este 0 1016.1 -0.8 68
2017-08-06 21:00:00 21 5 Norte 24 Nordeste 0 1016.3 -0.9 66
2017-08-06 20:00:00 21.7 14 Nordeste 33 Nordeste 0 1016.5 -0.9 63
2017-08-06 19:00:00 21.9 16 Nordeste 30 Norte 0 1016.9 -0.9 61
2017-08-06 18:00:00 22.7 15 Norte 32 Norte 0 1017.2 -0.9 64
2017-08-06 17:00:00 22.5 15 Norte 28 Norte 0 1017.4 -1.2 62
2017-08-06 16:00:00 22.3 14 Norte 26 Norte 0 1017.8 -1.5 63
2017-08-06 15:00:00 22.8 13 Nordeste 30 Nordeste 0 1018.1 -1.6 58
2017-08-06 14:00:00 22.6 11 Norte 22 Norte 0 1018.6 -1.3 59
2017-08-06 13:00:00 22.7 12 Norte 24 Norte 0 1019.3 -0.7 57
2017-08-06 12:00:00 21.5 8 Norte 18 Norte 0 1019.7 -0.2 58
2017-08-06 11:00:00 20.4 5 Norte 21 Norte 0 1019.9 0.3 61
2017-08-06 10:00:00 20.1 8 Norte 15 Norte 0 1020 0.7 67
2017-08-06 09:00:00 18.8 0 Calma 5 Oeste 0 1019.9 0.8 87
2017-08-06 08:00:00 17 0 Calma 4 Oeste 0 1019.6 0.3 95
2017-08-06 07:00:00 16.9 0 Calma 4 Oeste 0 1019.3 -0.1 97
2017-08-06 06:00:00 17.1 0 Calma 4 Sur 0 1019.1 -0.4 98
2017-08-06 05:00:00 17.4 0 Calma 2 Sudoeste 0 1019.3 -0.3 99
2017-08-06 04:00:00 17.7 0 Calma 4 Oeste 0 1019.4 -0.3 99
2017-08-06 03:00:00 17.8 0 Calma 4 Norte 0 1019.5 -0.2 99
2017-08-06 02:00:00 17.9 0 Calma 8 Noroeste 0 1019.6 -0.2 99
2017-08-06 01:00:00 17.9 4 Oeste 8 Oeste 0 1019.7 0.4 98
2017-08-06 00:00:00 17.8 6 Noroeste 11 Noroeste 0 1019.7 0.9 98
2017-08-05 23:00:00 17.8 3 Oeste 17 Norte 1.4 1019.8 1.1 98
2017-08-05 22:00:00 18.1 4 Oeste 8 Noroeste 1 1019.3 0.6 98
2017-08-05 21:00:00 18 5 Sudoeste 11 Noroeste 0 1018.8 0.1 97
2017-08-05 20:00:00 18.2 6 Noroeste 17 Noroeste 0 1018.7 -0.2 96
2017-08-05 19:00:00 18.9 8 Noroeste 13 Oeste 0 1018.7 -0.3 89
2017-08-05 18:00:00 18.7 2 Oeste 17 Noroeste 0 1018.7 -0.3 93
2017-08-05 17:00:00 17.9 8 Oeste 18 Oeste 0 1018.9 0.1 97
2017-08-05 16:00:00 18.5 12 Noroeste 24 Noroeste 0 1019 0.7 90
2017-08-05 15:00:00 18.5 15 Norte 30 Norte 0.4 1019 1.3 94
2017-08-05 14:00:00 19 15 Noroeste 32 Noroeste 1.1 1018.8 1.5 97
2017-08-05 13:00:00 19 22 Noroeste 32 Noroeste 1.4 1018.3 1.5 98
2017-08-05 12:00:00 20.2 14 Norte 26 Norte 0 1017.7 1.7 95
2017-08-05 11:00:00 20.2 6 Norte 15 Norte 0 1017.3 2.4 98
2017-08-05 10:00:00 19.8 6 Oeste 21 Norte 0 1016.8 2.5 98
2017-08-05 09:00:00 19.9 15 Norte 26 Norte 0.3 1016 2.3 96
2017-08-05 08:00:00 20.6 8 Noroeste 18 Norte 0.3 1014.9 1.2 97
2017-08-05 07:00:00 21.2 9 Norte 24 Nordeste 0 1014.3 0.6 96
2017-08-05 06:00:00 22 18 Norte 26 Nordeste 0 1013.7 0.2 93
2017-08-05 05:00:00 22.7 3 Norte 8 Noroeste 0 1013.7 -0.1 95
2017-08-05 04:00:00 22.7 3 Oeste 8 Noroeste 0 1013.7 -0.2 96
2017-08-05 03:00:00 22.3 5 Noroeste 11 Noroeste 0 1013.5 -0.7 95
2017-08-05 02:00:00 23.2 8 Noroeste 15 Noroeste 0 1013.8 -0.5 91
2017-08-05 01:00:00 23.9 5 Oeste 15 Noroeste 0 1013.9 0 85
2017-08-05 00:00:00 24.8 8 Noroeste 15 Noroeste 0 1014.2 0.7 73
2017-08-04 23:00:00 25.4 2 Este 18 Nordeste 0 1014.3 1.1 68
2017-08-04 22:00:00 26.3 6 Nordeste 21 Nordeste 0 1013.9 0.9 64
2017-08-04 21:00:00 27 9 Nordeste 22 Norte 0 1013.5 0.7 61
2017-08-04 20:00:00 27.8 14 Norte 22 Norte 0 1013.2 0.5 58
2017-08-04 19:00:00 28.6 16 Norte 28 Nordeste 0 1013 0.3 56
2017-08-04 18:00:00 30.1 16 Norte 35 Nordeste 0 1012.8 -0.2 51
2017-08-04 17:00:00 30.5 15 Norte 26 Norte 0 1012.7 -0.4 50
2017-08-04 16:00:00 30.8 17 Norte 28 Nordeste 0 1012.7 -1.1 49
2017-08-04 15:00:00 31.2 14 Norte 26 Norte 0 1013 -1.2 49
2017-08-04 14:00:00 30.9 8 Norte 21 Norte 0 1013.1 -1.1 49
2017-08-04 13:00:00 30 10 Norte 21 Norte 0 1013.8 -0.3 51
2017-08-04 12:00:00 29.5 4 Oeste 17 Oeste 0 1014.2 0.6 52
2017-08-04 11:00:00 27.4 2 Norte 8 Norte 0 1014.2 0.8 61
2017-08-04 10:00:00 25.4 0 Calma 5 Este 0 1014.1 1 70
2017-08-04 09:00:00 23.4 2 Este 5 Este 0 1013.6 0.6 80
2017-08-04 08:00:00 21.1 0 Calma 5 Este 0 1013.4 0.3 90
2017-08-04 07:00:00 20.1 2 Este 13 Este 0 1013.1 -0.5 92
2017-08-04 06:00:00 20.5 8 Este 13 Este 0 1013 -0.7 92
2017-08-04 05:00:00 21.1 2 Sudeste 4 Sudeste 0 1013.1 -1.1 89
2017-08-04 04:00:00 21.3 0 Calma 4 Sur 0 1013.6 -- 87
2017-08-04 03:00:00 21.3 0 Calma 5 Sudoeste 0 1013.7 -1.1 87
2017-08-04 02:00:00 21.2 0 Calma 4 Sur 0 1014.2 -0.9 88
2017-08-04 01:00:00 -- -- -- -- -- -- -- -- --
2017-08-04 00:00:00 21.2 0 Calma 4 Sudeste 0 1014.8 0 88
2017-08-03 23:00:00 21.5 4 Norte 8 Norte 0 1015.1 0.7 86
2017-08-03 22:00:00 22.3 9 Noroeste 18 Norte 0 1015 0.9 83
2017-08-03 21:00:00 22.8 14 Norte 24 Norte 0 1014.8 0.7 83
2017-08-03 20:00:00 24.2 17 Noroeste 26 Noroeste 0 1014.4 0.6 76
2017-08-03 19:00:00 25.7 17 Noroeste 30 Noroeste 0 1014.1 0.2 66
2017-08-03 18:00:00 26.9 22 Noroeste 35 Oeste 0 1014.1 0 61
2017-08-03 17:00:00 29.2 18 Noroeste 37 Noroeste 0 1013.8 -0.5 47
2017-08-03 16:00:00 29 15 Norte 42 Noroeste 0 1013.9 -0.7 39
2017-08-03 15:00:00 29.1 19 Noroeste 33 Oeste 0 1014.1 -0.7 45
2017-08-03 14:00:00 28.8 13 Noroeste 26 Norte 0 1014.3 -0.6 59
2017-08-03 13:00:00 28.5 3 Noroeste 13 Noroeste 0 1014.6 -0.4 57
2017-08-03 12:00:00 26.9 0 Calma 15 Este 0 1014.8 0.2 63
2017-08-03 11:00:00 25.1 2 Este 8 Este 0 1014.9 0 70
2017-08-03 10:00:00 22.5 0 Calma 8 Sudeste 0 1015 0.3 78
2017-08-03 09:00:00 19.4 4 Sudeste 13 Sudeste 0 1014.6 0.4 91
2017-08-03 08:00:00 17 0 Calma 15 Nordeste 0 1014.9 0.6 97
2017-08-03 07:00:00 16.3 0 Calma 11 Este 0 1014.7 0.4 98
2017-08-03 06:00:00 16.6 4 Este 8 Este 0 1014.2 0.1 97
2017-08-03 05:00:00 16.9 6 Este 11 Este 0 1014.3 0 97
2017-08-03 04:00:00 17.5 2 Este 8 Este 0 1014.3 0.3 96
2017-08-03 03:00:00 17.6 7 Este 11 Este 0 1014.1 -0.1 95
2017-08-03 02:00:00 18.3 4 Este 8 Este 0 1014.3 -0.3 93
2017-08-03 01:00:00 18.7 2 Sudeste 11 Nordeste 0 1014 -0.4 92
2017-08-03 00:00:00 19.2 6 Este 11 Este 0 1014.2 0.2 90
2017-08-02 23:00:00 20.4 0 Calma 4 Sur 0 1014.6 0.9 85
2017-08-02 22:00:00 21.7 2 Norte 11 Nordeste 0 1014.4 0.5 79
2017-08-02 21:00:00 22.5 2 Noroeste 13 Norte 0 1014 0.5 75
2017-08-02 20:00:00 23.1 9 Noroeste 24 Norte 0 1013.7 0.5 69
2017-08-02 19:00:00 23.6 15 Noroeste 24 Norte 0 1013.9 0.7 68
2017-08-02 18:00:00 25 15 Norte 30 Norte 0 1013.5 0.4 67
2017-08-02 17:00:00 25.5 16 Noroeste 33 Noroeste 0 1013.2 -0.3 63
2017-08-02 16:00:00 26.4 19 Noroeste 32 Oeste 0 1013.2 -1.4 61
2017-08-02 15:00:00 27.4 21 Oeste 30 Oeste 0 1013.1 -1.6 58
2017-08-02 14:00:00 27 6 Nordeste 17 Nordeste 0 1013.5 -1.4 60
2017-08-02 13:00:00 26 4 Noroeste 17 Noroeste 0 1014.6 -0.3 62
2017-08-02 12:00:00 24.7 3 Noroeste 15 Noroeste -- 1014.7 0.1 65
2017-08-02 11:00:00 23.4 3 Norte 8 Norte -- 1014.9 0.7 68
2017-08-02 10:00:00 22.2 0 Calma 5 Oeste -- 1014.9 0.8 75
2017-08-02 09:00:00 19.2 2 Este 5 Este 0 1014.6 0.3 90
2017-08-02 08:00:00 16.5 4 Este 13 Este 0 1014.2 -0.4 98
2017-08-02 07:00:00 16.5 0 Calma 8 Este 0 1014.1 -0.6 98
2017-08-02 06:00:00 16.8 4 Este 5 Este 0 1014.3 -0.8 97
2017-08-02 05:00:00 17.3 5 Este 8 Este 0 1014.6 -0.9 95
2017-08-02 04:00:00 18.5 0 Calma 4 Sudeste 0 1014.7 -1 92
2017-08-02 03:00:00 18.8 2 Este 4 Este 0 1015.1 -0.7 89
2017-08-02 02:00:00 18.9 0 Calma 4 Este 0 1015.5 -0.3 88
2017-08-02 01:00:00 19.1 0 Calma 4 Nordeste 0 1015.7 0.6 87
2017-08-02 00:00:00 19.8 0 Calma 2 Sur 0 1015.8 1.7 85
2017-08-01 23:00:00 20.6 0 Calma 8 Nordeste 0 1015.8 2.6 77
2017-08-01 22:00:00 20.8 4 Este 21 Este 0 1015.1 2.3 76
2017-08-01 21:00:00 21.2 6 Este 22 Este 0 1014.1 1.4 75
2017-08-01 20:00:00 22.4 15 Nordeste 33 Este 0 1013.2 0.5 70
2017-08-01 19:00:00 23.4 15 Este 32 Este 0 1012.8 0 70
2017-08-01 18:00:00 23.8 12 Este 21 Nordeste 0 1012.7 0.1 70
2017-08-01 17:00:00 23.5 6 Este 15 Nordeste 0 1012.7 -0.1 73
2017-08-01 16:00:00 23.6 3 Norte 13 Norte 0 1012.8 0.1 71
2017-08-01 15:00:00 22.4 2 Este 11 Nordeste 0 1012.6 -0.2 79
2017-08-01 14:00:00 21.2 6 Norte 18 Noroeste 0 1012.8 0.6 84
2017-08-01 13:00:00 21.6 6 Noroeste 17 Noroeste 0 1012.7 0.6 83
2017-08-01 12:00:00 20.6 7 Noroeste 15 Noroeste 0 1012.8 1.1 85
2017-08-01 11:00:00 20.8 3 Oeste 8 Noroeste 0 1012.2 1.5 87
2017-08-01 10:00:00 19.6 0 Calma 4 Oeste 0 1012.1 1.6 94
2017-08-01 09:00:00 18.7 0 Calma 8 Oeste 0 1011.7 1.4 99
2017-08-01 08:00:00 18.2 0 Calma 5 Oeste 0 1010.7 0.5 100
2017-08-01 07:00:00 17.9 0 Calma 8 Este 0 1010.5 0.8 100
2017-08-01 06:00:00 17.6 0 Calma 4 Sur 0 1010.3 0.1 100
2017-08-01 05:00:00 17.6 0 Calma 9 Este 0 1010.2 0 100
2017-08-01 04:00:00 17.5 7 Este 13 Este 0 1009.7 -0.9 100
2017-08-01 03:00:00 17.9 2 Este 8 Este 0 1010.2 -0.5 99
2017-08-01 02:00:00 18.4 0 Calma 2 Noroeste 0 1010.2 -0.5 98
2017-08-01 01:00:00 18.5 0 Calma 2 Sudoeste 0 1010.6 0.4 97
2017-08-01 00:00:00 18.9 0 Calma 4 Este 0 1010.7 1.1 96
2017-07-31 23:00:00 19.1 0 Calma 2 Sur 0 1010.7 1.7 94
2017-07-31 22:00:00 19.4 0 Calma 4 Oeste 0 1010.2 1.2 92
2017-07-31 21:00:00 19.4 3 Sur 13 Noroeste 0 1009.6 0.7 92
2017-07-31 20:00:00 19.8 4 Noroeste 15 Oeste 0 1009 0.2 90
2017-07-31 19:00:00 19.5 7 Oeste 24 Este 0 1009 0.2 90
2017-07-31 18:00:00 19.4 5 Norte 18 Norte 0 1008.9 0.1 89
2017-07-31 17:00:00 20 9 Norte 21 Nordeste 0.1 1008.8 0 90
2017-07-31 16:00:00 19.3 0 Calma 18 Noroeste 0.5 1008.8 -0.1 98
2017-07-31 15:00:00 19.5 13 Noroeste 21 Noroeste 0 1008.8 -0.1 96
2017-07-31 14:00:00 20 7 Oeste 17 Noroeste 0 1008.8 -0.2 96
2017-07-31 13:00:00 19.3 12 Noroeste 18 Noroeste 0.1 1008.9 -0.1 98
2017-07-31 12:00:00 19 5 Noroeste 13 Noroeste 0.7 1008.9 -0.2 98
2017-07-31 11:00:00 19 8 Noroeste 15 Noroeste 0 1009 -0.3 97
2017-07-31 10:00:00 18.8 2 Oeste 4 Noroeste 0 1009 -0.3 98
2017-07-31 09:00:00 18.3 0 Calma 17 Noroeste 0.5 1009.1 0.1 99
2017-07-31 08:00:00 18.1 4 Este 11 Este 0.6 1009.3 -0.5 98
2017-07-31 07:00:00 18.5 0 Calma 2 Sur 0 1009.3 -1 92
2017-07-31 06:00:00 18.4 0 Calma 2 Sur 0 1009 -1.9 91
2017-07-31 05:00:00 18.5 0 Calma 4 Este 0 1009.8 -1.4 92
2017-07-31 04:00:00 18.5 2 Este 5 Este 0 1010.3 -1.3 92
2017-07-31 03:00:00 18.5 0 Calma -- -- -- 1010.9 -1.2 90
2017-07-31 02:00:00 18.7 0 Calma 4 Este 0 1011.2 -1 89
2017-07-31 01:00:00 18.9 3 Este 4 Este 0 1011.6 -0.2 89
2017-07-31 00:00:00 19.2 0 Calma 4 Nordeste 0 1012.1 0.5 87
2017-07-30 23:00:00 19.2 0 Calma 4 Sur 0 1012.2 0.9 86
2017-07-30 22:00:00 19.6 0 Calma 5 Noroeste 0 1011.8 0.4 84
2017-07-30 21:00:00 19.7 3 Noroeste 13 Noroeste 0 1011.6 0.2 83
2017-07-30 20:00:00 19.6 2 Sur 22 Noroeste 0 1011.3 0 83
2017-07-30 19:00:00 21.1 13 Noroeste 24 Noroeste 0 1011.4 0.3 75
2017-07-30 18:00:00 21.3 12 Noroeste 22 Noroeste 0 1011.4 0.8 76
2017-07-30 17:00:00 21.4 12 Noroeste 18 Noroeste 0 1011.3 1 75
2017-07-30 16:00:00 20.9 10 Noroeste 28 Norte 0 1011.1 0.3 81
2017-07-30 15:00:00 21.5 16 Norte 28 Norte 0 1010.6 -0.3 81
2017-07-30 14:00:00 22.6 15 Noroeste 21 Noroeste 0 1010.3 -0.6 81
2017-07-30 13:00:00 21.6 5 Norte 21 Nordeste 0 1010.8 -0.1 87
2017-07-30 12:00:00 21.5 3 Norte 8 Noroeste 0 1010.9 0.2 87
2017-07-30 11:00:00 21.3 6 Noroeste 11 Noroeste 0 1010.9 0.2 84
2017-07-30 10:00:00 21 0 Calma 8 Sudeste 0 1010.9 0 82
2017-07-30 09:00:00 20.1 5 Este 9 Este 0 1010.7 -0.2 84
2017-07-30 08:00:00 19.6 2 Este 11 Este 0 1010.7 0.1 86
2017-07-30 07:00:00 19.2 4 Sudeste 8 Este 0 1010.9 0.2 88
2017-07-30 06:00:00 18.7 0 Calma 8 Este 0 1010.9 0.1 89
2017-07-30 05:00:00 18.1 5 Este 8 Este 0 1010.6 0 90
2017-07-30 04:00:00 18.4 4 Este 8 Este 0 1010.7 0.3 88
2017-07-30 03:00:00 19.2 0 Calma -- -- -- 1010.8 0.7 84
2017-07-30 02:00:00 20 3 Este 8 Este 0 1010.6 0.7 81
2017-07-30 01:00:00 20.8 4 Este 8 Este 0 1010.4 0.8 77
2017-07-30 00:00:00 22.5 2 Norte 18 Este 0 1010.1 0.9 70
2017-07-29 23:00:00 23.6 9 Norte 24 Este 0 1009.9 1.1 64
2017-07-29 22:00:00 25.2 8 Este 17 Este 0 1009.6 0.8 56
2017-07-29 21:00:00 26.6 10 Este 26 Nordeste 0 1009.2 -0.2 53
2017-07-29 20:00:00 27.9 16 Este 26 Nordeste 0 1008.8 -0.9 51
2017-07-29 19:00:00 29 15 Este 30 Nordeste 0 1008.8 -1.5 49
2017-07-29 18:00:00 29.4 11 Norte 26 Nordeste 0 1009.4 -1.2 47
2017-07-29 17:00:00 29.7 8 Nordeste 24 Norte 0 1009.7 -1.2 46
2017-07-29 16:00:00 29.4 14 Norte 28 Norte 0 1010.3 -1 47
2017-07-29 15:00:00 29.5 14 Norte 26 Norte 0 1010.6 -1.2 42
2017-07-29 14:00:00 29.4 6 Norte 17 Norte 0 1010.9 -1.3 28
2017-07-29 13:00:00 28.9 3 Noroeste 11 Este 0 1011.3 -1.1 26
2017-07-29 12:00:00 26.9 4 Este 13 Este 0 1011.8 -0.3 44
2017-07-29 11:00:00 24.8 2 Este 8 Este 0 1012.2 0.2 59
2017-07-29 10:00:00 22.3 3 Este 13 Este 0 1012.4 0.3 71
2017-07-29 09:00:00 20.1 4 Este 8 Este 0 1012.1 0.2 81
2017-07-29 08:00:00 18 0 Calma 13 Sudeste 0 1012 0 93
2017-07-29 07:00:00 17.4 2 Sudeste 5 Sudeste 0 1012.1 -0.2 96
2017-07-29 06:00:00 17.8 2 Este 11 Sudeste 0 1011.9 -1.3 95
2017-07-29 05:00:00 18.1 4 Este 11 Este 0 1012 -1.7 96
2017-07-29 04:00:00 18.2 3 Este 8 Este 0 1012.3 -1.6 96
2017-07-29 03:00:00 18 4 Este -- -- -- 1013.2 -1.2 96
2017-07-29 02:00:00 18.3 4 Este 8 Este 0 1013.7 -1 95
2017-07-29 01:00:00 18.9 5 Este 8 Sudeste 0 1013.9 -0.5 91
2017-07-29 00:00:00 20.1 2 Este 11 Este 0 1014.4 0.5 88
2017-07-28 23:00:00 21.1 0 Calma 5 Norte 0 1014.7 1.2 82
2017-07-28 22:00:00 22.1 5 Oeste 15 Noroeste 0 1014.4 1.2 76
2017-07-28 21:00:00 22.6 10 Noroeste 17 Noroeste 0 1013.9 0.8 75
2017-07-28 20:00:00 23.5 13 Noroeste 24 Noroeste 0 1013.5 0.6 71
2017-07-28 19:00:00 24.8 15 Oeste 28 Oeste 0 1013.2 0 67
2017-07-28 18:00:00 25 22 Oeste 30 Noroeste 0 1013.1 -0.7 67
2017-07-28 17:00:00 26.2 13 Noroeste 24 Noroeste 0 1012.9 -1.3 66
2017-07-28 16:00:00 25.6 8 Noroeste 21 Noroeste -- 1013.2 -1.2 68
2017-07-28 15:00:00 24.8 6 Oeste 17 Oeste 0 1013.8 -0.6 72
2017-07-28 14:00:00 23.7 5 Nordeste 15 Norte 0 1014.2 -0.3 74
2017-07-28 13:00:00 23.5 3 Nordeste 11 Norte 0 1014.4 -0.1 74
2017-07-28 12:00:00 22.6 5 Sudeste 13 Sudeste 0 1014.4 0.1 76
2017-07-28 11:00:00 21.5 7 Este 15 Este 0 1014.5 0.7 81
2017-07-28 10:00:00 20.1 7 Sudeste 13 Sudeste 0 1014.5 0.9 93
2017-07-28 09:00:00 19.8 3 Nordeste 8 Nordeste 0 1014.3 0.9 97
2017-07-28 08:00:00 19.4 0 Calma 4 Sur 0 1013.8 0.4 97
2017-07-28 07:00:00 19.2 0 Calma 4 Sur 0 1013.6 -0.1 98
2017-07-28 06:00:00 19.1 0 Calma 2 Sur 0 1013.4 -0.3 98
2017-07-28 05:00:00 18.9 0 Calma 4 Oeste 0 1013.4 -0.5 99
2017-07-28 04:00:00 19.1 3 Oeste 5 Noroeste 0 1013.7 -0.1 98
2017-07-28 03:00:00 19.2 0 Calma -- -- -- 1013.7 0.2 98
2017-07-28 02:00:00 19.5 2 Oeste 11 Noroeste 0 1013.9 0.4 96
2017-07-28 01:00:00 20.1 4 Norte 21 Norte 0 1013.8 0.7 94
2017-07-28 00:00:00 21.6 3 Nordeste 13 Nordeste 0 1013.5 1 86
2017-07-27 23:00:00 21.8 4 Norte 11 Nordeste 0 1013.5 1.4 84
2017-07-27 22:00:00 21.9 4 Norte 15 Norte 0 1013.1 1.2 83
2017-07-27 21:00:00 22.1 7 Norte 17 Noroeste 0 1012.5 0.8 81
2017-07-27 20:00:00 22.6 14 Noroeste 28 Noroeste 0 1012.1 0.5 80
2017-07-27 19:00:00 24.8 15 Noroeste 26 Norte 0 1011.9 0.3 72
2017-07-27 18:00:00 25.3 15 Norte 32 Noroeste 0 1011.7 0 70
2017-07-27 17:00:00 26.7 20 Noroeste 32 Noroeste 0 1011.6 0.1 64
2017-07-27 16:00:00 26.9 15 Noroeste 30 Noroeste 0 1011.6 0.1 61
2017-07-27 15:00:00 27 18 Noroeste 33 Noroeste 0 1011.7 0.2 54
2017-07-27 14:00:00 27.9 15 Norte 30 Norte 0 1011.5 -0.3 49
2017-07-27 13:00:00 27.6 8 Noroeste 21 Nordeste 0 1011.5 -0.7 49
2017-07-27 12:00:00 26 0 Calma 11 Nordeste 0 1011.5 -1.1 59
2017-07-27 11:00:00 23.1 4 Este 13 Sudeste 0 1011.8 -0.3 68
2017-07-27 10:00:00 19.9 6 Este 13 Este 0 1012.2 0.4 84
2017-07-27 09:00:00 16.7 5 Este 11 Este 0 1012.6 0.9 99
2017-07-27 08:00:00 15 4 Este 8 Este 0 1012.1 0.3 100
2017-07-27 07:00:00 14.4 4 Este 8 Este 0 1011.8 -0.2 99
2017-07-27 06:00:00 14.8 5 Sudeste 8 Sudeste 0 1011.7 -0.5 98
2017-07-27 05:00:00 15.5 0 Calma 4 Sur 0 1011.8 -0.8 98
2017-07-27 04:00:00 15.8 0 Calma 8 Este 0 1012 -1 97
2017-07-27 03:00:00 15.8 3 Este -- -- -- 1012.2 -1 97
2017-07-27 02:00:00 16.2 2 Sudeste 4 Sudeste 0 1012.6 -0.6 95
2017-07-27 01:00:00 16.8 5 Este 11 Este 0 1013 0.2 94
2017-07-27 00:00:00 17.5 2 Sudeste 8 Nordeste 0 1013.2 0.5 90
2017-07-26 23:00:00 18.6 2 Noroeste 5 Noroeste 0 1013.2 0.6 86
2017-07-26 22:00:00 19.3 5 Noroeste 13 Noroeste 0 1012.8 0.1 83
2017-07-26 21:00:00 21.2 10 Noroeste 18 Noroeste 0 1012.7 -0.2 76
2017-07-26 20:00:00 22.8 10 Noroeste 21 Norte 0 1012.6 -0.6 71
2017-07-26 19:00:00 23.3 15 Noroeste 21 Noroeste 0 1012.7 -0.7 69
2017-07-26 18:00:00 23.9 12 Noroeste 22 Noroeste 0 1012.9 -0.4 66
2017-07-26 17:00:00 24.1 15 Noroeste 26 Noroeste 0 1013.2 0 64
2017-07-26 16:00:00 24.6 16 Noroeste 30 Noroeste 0 1013.4 -0.3 62
2017-07-26 15:00:00 25.1 19 Noroeste -- -- -- 1013.3 -0.4 61
2017-07-26 14:00:00 25.4 10 Noroeste 21 Noroeste 0 1013.2 -0.7 56
2017-07-26 13:00:00 24.5 6 Norte 15 Norte 0 1013.7 -0.5 54
2017-07-26 12:00:00 23.2 5 Nordeste 18 Este 0 1013.7 -0.9 59
2017-07-26 11:00:00 21.3 3 Este 11 Este 0 1013.9 -0.4 65
2017-07-26 10:00:00 19.7 3 Este 11 Sudeste 0 1014.2 0.2 75
2017-07-26 09:00:00 16.6 2 Sudeste 11 Sudeste 0 1014.6 0.5 88
2017-07-26 08:00:00 15.3 0 Calma 5 Sudeste 0 1014.3 -0.3 96
2017-07-26 07:00:00 14 3 Este 5 Este 0 1014 -1.2 98
2017-07-26 06:00:00 14.3 4 Este 5 Este 0 1014.1 -1.1 98
2017-07-26 05:00:00 14.8 4 Este 8 Este 0 1014.6 -1.2 97
2017-07-26 04:00:00 15.3 2 Este 8 Sudeste 0 1015.2 -0.8 96
2017-07-26 03:00:00 15.6 4 Sudeste -- -- -- 1015.2 -1.2 96
2017-07-26 02:00:00 15.6 3 Este 8 Este 0 1015.8 -0.8 95
2017-07-26 01:00:00 15.9 5 Sudeste 8 Sudeste 0 1016 -0.6 92
2017-07-26 00:00:00 16.5 4 Este -- -- 0 1016.4 -0.1 92
2017-07-25 23:00:00 17.8 0 Calma 4 Norte 0 1016.6 0.4 84
2017-07-25 22:00:00 18.8 3 Noroeste 18 Noroeste 0 1016.6 0.4 78
2017-07-25 21:00:00 20 10 Norte 22 Noroeste 0 1016.5 -0.1 71
2017-07-25 20:00:00 20.9 15 Noroeste 26 Noroeste 0 1016.2 -0.6 69
2017-07-25 19:00:00 21.1 16 Norte 28 Norte 0 1016.2 -1 66
2017-07-25 18:00:00 20.8 15 Noroeste 26 Noroeste 0 1016.6 -0.9 72
2017-07-25 17:00:00 20.6 17 Noroeste 30 Noroeste 0 1016.8 -0.9 71
2017-07-25 16:00:00 20.8 19 Noroeste 30 Oeste 0 1017.2 -0.6 72
2017-07-25 15:00:00 21.4 19 Noroeste 32 Oeste 0 1017.5 -0.6 70
2017-07-25 14:00:00 20.6 19 Noroeste 30 Noroeste 0 1017.7 -0.6 74
2017-07-25 13:00:00 20.9 19 Noroeste 30 Noroeste 0 1017.8 -0.6 70
2017-07-25 12:00:00 19.6 14 Noroeste 24 Noroeste 0 1018.1 0 79
2017-07-25 11:00:00 17.7 4 Este 8 Este 0 1018.3 0.1 95
2017-07-25 10:00:00 16.8 3 Este 8 Sudeste 0 1018.4 0.3 98
2017-07-25 09:00:00 16.8 6 Este 8 Este 0.2 1018.1 -0.3 98
2017-07-25 08:00:00 16.7 0 Calma 4 Sudeste 0 1018.2 -0.3 98
2017-07-25 07:00:00 16.7 3 Sudeste 5 Este 0 1018.1 -0.7 98
2017-07-25 06:00:00 17.1 0 Calma 8 Sudoeste 0 1018.4 -0.9 91
2017-07-25 05:00:00 17.2 3 Oeste 8 Oeste 0 1018.5 -1.2 91
2017-07-25 04:00:00 17 3 Sudoeste 5 Sudoeste 0 1018.8 -1.3 96
2017-07-25 03:00:00 17.4 0 Calma -- -- -- 1019.3 -1.2 96
2017-07-25 02:00:00 17.4 6 Noroeste 17 Oeste 0.3 1019.7 -0.8 96
2017-07-25 01:00:00 17.6 0 Calma 13 Noroeste 0.2 1020.1 -0.1 97
2017-07-25 00:00:00 17.7 4 Oeste 15 Norte 0.4 1020.5 0.4 96
2017-07-24 23:00:00 17.6 2 Oeste 15 Oeste 0.5 1020.5 0.8 98
2017-07-24 22:00:00 18 9 Noroeste 28 Noroeste 0.2 1020.2 0.7 96
2017-07-24 21:00:00 18.5 7 Noroeste 18 Noroeste 0 1020.1 0.6 91
2017-07-24 20:00:00 19 6 Noroeste 22 Noroeste 0.1 1019.7 0.5 92
2017-07-24 19:00:00 19.6 15 Norte 35 Norte 0 1019.5 0.3 88
2017-07-24 18:00:00 18.7 14 Noroeste 42 Norte 0.8 1019.5 0.5 96
2017-07-24 17:00:00 20.3 24 Noroeste 46 Noroeste 0 1019.2 0.4 80
2017-07-24 16:00:00 20 23 Noroeste 41 Noroeste 0 1019.2 0.1 87
2017-07-24 15:00:00 20.9 27 Noroeste 42 Noroeste 0 1019 0.3 78
2017-07-24 14:00:00 21 26 Noroeste 42 Noroeste 0 1018.8 0.6 80
2017-07-24 13:00:00 19.6 16 Noroeste 30 Noroeste 1.5 1019.1 1 95
2017-07-24 12:00:00 19 19 Oeste 42 Noroeste 0.2 1018.7 1.2 94
2017-07-24 11:00:00 19.6 21 Noroeste 39 Noroeste 0 1018.2 1.1 91
2017-07-24 10:00:00 19.4 18 Noroeste 37 Oeste 0.1 1018.1 0.9 92
2017-07-24 09:00:00 18.3 14 Noroeste 28 Noroeste 0.1 1017.5 0.8 96
2017-07-24 08:00:00 18.2 7 Oeste 32 Norte 0.3 1017.1 1.1 98
2017-07-24 07:00:00 18.3 23 Noroeste 39 Noroeste 1 1017.2 1 96
2017-07-24 06:00:00 19 24 Noroeste 42 Noroeste 0.4 1016.7 0 95
2017-07-24 05:00:00 19.9 15 Noroeste 28 Noroeste 0 1016 -0.8 93
2017-07-24 04:00:00 19.3 13 Noroeste 45 Noroeste 1.2 1016.2 -0.6 97
2017-07-24 03:00:00 19.7 12 Oeste -- -- -- 1016.7 -0.1 94
2017-07-24 02:00:00 20 12 Oeste 33 Noroeste 0 1016.8 -0.2 93
2017-07-24 01:00:00 20.1 4 Oeste 11 Noroeste 0 1016.8 -0.2 87
2017-07-24 00:00:00 20.5 0 Calma 11 Este 0 1016.8 0 75
2017-07-23 23:00:00 20.4 2 Sur 5 Norte 0 1017 0.6 75
2017-07-23 22:00:00 20.7 0 Calma 17 Noroeste 0 1017 0.5 70
2017-07-23 21:00:00 21.5 6 Noroeste 15 Noroeste 0 1016.8 0 66
2017-07-23 20:00:00 23 5 Noroeste 24 Noroeste 0 1016.4 -0.1 60
2017-07-23 19:00:00 22.9 15 Noroeste 26 Noroeste 0 1016.5 0 59
2017-07-23 18:00:00 23 16 Noroeste 28 Oeste 0 1016.8 -0.5 63
2017-07-23 17:00:00 24.6 15 Noroeste 26 Norte 0 1016.5 -1.3 59
2017-07-23 16:00:00 24.5 4 Noroeste 21 Norte 0 1016.5 -1.3 58
2017-07-23 15:00:00 23 14 Norte 24 Noroeste 0 1017.3 -0.5 63
2017-07-23 14:00:00 23.3 14 Norte 24 Norte 0 1017.8 -0.1 60
2017-07-23 13:00:00 23.5 10 Noroeste 24 Norte 0 1017.8 -0.1 53
2017-07-23 12:00:00 22.6 9 Noroeste 22 Noroeste 0 1017.8 -0.1 58
2017-07-23 11:00:00 21.7 5 Norte 13 Norte 0 1017.9 0.4 64
2017-07-23 10:00:00 20.1 0 Calma 5 Sudeste 0 1017.9 0.4 76
2017-07-23 09:00:00 17.8 4 Este 11 Este 0 1017.9 0.7 89
2017-07-23 08:00:00 16.6 0 Calma 8 Este 0 1017.5 0.5 95
2017-07-23 07:00:00 16.3 3 Sudeste 8 Este 0 1017.5 0.2 94
2017-07-23 06:00:00 16.7 4 Sudeste 8 Este 0 1017.2 -0.2 91
2017-07-23 05:00:00 17.4 2 Sudeste 5 Este 0 1017 -0.6 87
2017-07-23 04:00:00 17.6 5 Este 8 Este 0 1017.3 -0.2 87
2017-07-23 03:00:00 17.9 4 Sudeste 8 Sudeste 0 1017.4 0.1 87
2017-07-23 02:00:00 18.4 3 Este 5 Este 0 1017.6 0.5 84
2017-07-23 01:00:00 18.6 0 Calma 4 Sudeste 0 1017.5 1.2 78
2017-07-23 00:00:00 19 0 Calma 5 Oeste 0 1017.3 1.7 76
2017-07-22 23:00:00 19.1 4 Oeste 15 Noroeste 0 1017.1 2.1 77
2017-07-22 22:00:00 19.2 6 Noroeste 15 Noroeste 0 1016.3 1.9 76
2017-07-22 21:00:00 19.3 7 Oeste 24 Noroeste 0 1015.6 1.7 76
2017-07-22 20:00:00 19.7 14 Noroeste 28 Noroeste 0 1015 1.6 74
2017-07-22 19:00:00 20.2 17 Noroeste 32 Noroeste 0 1014.4 1.6 76
2017-07-22 18:00:00 20.8 21 Noroeste 32 Noroeste 0 1013.9 1.6 77
2017-07-22 17:00:00 21.5 18 Noroeste 32 Noroeste 0 1013.4 1.8 73
2017-07-22 16:00:00 22.3 22 Noroeste 33 Noroeste 0 1012.8 1.4 71
2017-07-22 15:00:00 23.7 19 Noroeste 39 Noroeste 0 1012.3 0.8 68
2017-07-22 14:00:00 24.9 20 Norte 30 Norte 0 1011.6 0.4 52
2017-07-22 13:00:00 25.1 4 Sudeste 13 Sur 0 1011.4 0.1 52
2017-07-22 12:00:00 23.4 3 Sudeste 13 Este 0 1011.5 0.3 60
2017-07-22 11:00:00 21.4 5 Este 17 Sudeste 0 1011.2 0.4 68
2017-07-22 10:00:00 18 10 Sudeste 17 Sudeste 0 1011.3 0.6 82
2017-07-22 09:00:00 15.9 6 Sudeste 13 Sudeste 0 1011.2 0.7 90
2017-07-22 08:00:00 14.2 4 Sudeste 13 Sudeste 0 1010.8 0.4 97
2017-07-22 07:00:00 13.7 3 Sudeste 13 Sudeste 0 1010.7 0 97
2017-07-22 06:00:00 13.9 10 Sudeste 15 Sudeste 0 1010.5 -0.2 98
2017-07-22 05:00:00 14 4 Sudeste 11 Sudeste 0 1010.4 -0.2 98
2017-07-22 04:00:00 14.5 4 Sudeste 11 Sudeste 0 1010.7 -0.1 97
2017-07-22 03:00:00 14.9 5 Sudeste 8 Sudeste 0 1010.7 -0.1 98
2017-07-22 02:00:00 15.1 3 Este 5 Este 0 1010.6 0 98
2017-07-22 01:00:00 15.1 4 Este 5 Este 0 1010.8 0.5 97
2017-07-22 00:00:00 15.7 3 Sudeste 13 Este 0 1010.8 0.7 97